sensor_id;sensor_type;location;lat;lon;timestamp;P1;durP1;ratioP1;P2;durP2;ratioP2
4915;SDS011;70796;52.406;13.230;2024-03-07T00:00:04;121.40;;;42.13;;
4915;SDS011;70796;52.406;13.230;2024-03-07T00:02:41;123.87;;;42.80;;
4915;SDS011;70796;52.406;13.230;2024-03-07T00:05:08;119.97;;;42.77;;
4915;SDS011;70796;52.406;13.230;2024-03-07T00:07:35;130.23;;;45.47;;
4915;SDS011;70796;52.406;13.230;2024-03-07T00:10:02;131.93;;;44.10;;
4915;SDS011;70796;52.406;13.230;2024-03-07T00:12:29;131.77;;;42.40;;
4915;SDS011;70796;52.406;13.230;2024-03-07T00:14:56;128.97;;;45.17;;
4915;SDS011;70796;52.406;13.230;2024-03-07T00:17:22;131.43;;;43.43;;
4915;SDS011;70796;52.406;13.230;2024-03-07T00:19:49;123.60;;;43.67;;
4915;SDS011;70796;52.406;13.230;2024-03-07T00:22:15;123.23;;;41.67;;
4915;SDS011;70796;52.406;13.230;2024-03-07T00:24:42;134.33;;;43.30;;
4915;SDS011;70796;52.406;13.230;2024-03-07T00:27:08;131.23;;;44.47;;
4915;SDS011;70796;52.406;13.230;2024-03-07T00:29:35;136.37;;;42.97;;
4915;SDS011;70796;52.406;13.230;2024-03-07T00:32:04;126.60;;;43.77;;
4915;SDS011;70796;52.406;13.230;2024-03-07T00:34:30;116.33;;;40.13;;
4915;SDS011;70796;52.406;13.230;2024-03-07T00:36:56;119.10;;;44.50;;
4915;SDS011;70796;52.406;13.230;2024-03-07T00:39:25;126.60;;;42.40;;
4915;SDS011;70796;52.406;13.230;2024-03-07T00:41:51;126.70;;;43.87;;
4915;SDS011;70796;52.406;13.230;2024-03-07T00:44:17;121.40;;;43.00;;
4915;SDS011;70796;52.406;13.230;2024-03-07T00:46:44;125.57;;;42.67;;
4915;SDS011;70796;52.406;13.230;2024-03-07T00:49:10;146.00;;;41.53;;
4915;SDS011;70796;52.406;13.230;2024-03-07T00:51:36;134.70;;;44.83;;
4915;SDS011;70796;52.406;13.230;2024-03-07T00:54:05;126.80;;;43.00;;
4915;SDS011;70796;52.406;13.230;2024-03-07T00:56:32;127.00;;;43.37;;
4915;SDS011;70796;52.406;13.230;2024-03-07T00:58:58;115.33;;;40.03;;
4915;SDS011;70796;52.406;13.230;2024-03-07T01:01:24;143.27;;;45.40;;
4915;SDS011;70796;52.406;13.230;2024-03-07T01:03:51;142.97;;;47.63;;
4915;SDS011;70796;52.406;13.230;2024-03-07T01:06:17;132.23;;;45.40;;
4915;SDS011;70796;52.406;13.230;2024-03-07T01:08:44;120.50;;;42.13;;
4915;SDS011;70796;52.406;13.230;2024-03-07T01:11:12;140.40;;;45.43;;
4915;SDS011;70796;52.406;13.230;2024-03-07T01:13:39;154.20;;;46.93;;
4915;SDS011;70796;52.406;13.230;2024-03-07T01:16:05;129.93;;;42.30;;
4915;SDS011;70796;52.406;13.230;2024-03-07T01:18:32;129.53;;;42.00;;
4915;SDS011;70796;52.406;13.230;2024-03-07T01:21:01;123.80;;;42.63;;
4915;SDS011;70796;52.406;13.230;2024-03-07T01:23:28;122.33;;;41.63;;
4915;SDS011;70796;52.406;13.230;2024-03-07T01:25:55;144.27;;;43.37;;
4915;SDS011;70796;52.406;13.230;2024-03-07T01:28:25;129.50;;;45.50;;
4915;SDS011;70796;52.406;13.230;2024-03-07T01:30:52;138.63;;;44.77;;
4915;SDS011;70796;52.406;13.230;2024-03-07T01:33:19;121.50;;;43.43;;
4915;SDS011;70796;52.406;13.230;2024-03-07T01:35:45;119.33;;;42.33;;
4915;SDS011;70796;52.406;13.230;2024-03-07T01:38:12;131.83;;;45.53;;
4915;SDS011;70796;52.406;13.230;2024-03-07T01:40:42;123.90;;;42.80;;
4915;SDS011;70796;52.406;13.230;2024-03-07T01:43:10;128.00;;;43.27;;
4915;SDS011;70796;52.406;13.230;2024-03-07T01:45:37;122.20;;;44.40;;
4915;SDS011;70796;52.406;13.230;2024-03-07T01:48:04;116.27;;;42.33;;
4915;SDS011;70796;52.406;13.230;2024-03-07T01:50:31;126.10;;;43.50;;
4915;SDS011;70796;52.406;13.230;2024-03-07T01:52:58;130.73;;;42.87;;
4915;SDS011;70796;52.406;13.230;2024-03-07T01:55:25;115.13;;;41.20;;
4915;SDS011;70796;52.406;13.230;2024-03-07T01:57:53;136.97;;;44.47;;
4915;SDS011;70796;52.406;13.230;2024-03-07T02:00:22;116.20;;;42.13;;
4915;SDS011;70796;52.406;13.230;2024-03-07T02:02:48;121.90;;;42.87;;
4915;SDS011;70796;52.406;13.230;2024-03-07T02:05:15;117.50;;;40.83;;
4915;SDS011;70796;52.406;13.230;2024-03-07T02:07:42;116.80;;;37.57;;
4915;SDS011;70796;52.406;13.230;2024-03-07T02:10:09;113.23;;;40.13;;
4915;SDS011;70796;52.406;13.230;2024-03-07T02:12:35;108.73;;;38.47;;
4915;SDS011;70796;52.406;13.230;2024-03-07T02:15:02;105.63;;;37.70;;
4915;SDS011;70796;52.406;13.230;2024-03-07T02:17:29;116.37;;;38.40;;
4915;SDS011;70796;52.406;13.230;2024-03-07T02:19:55;107.23;;;39.23;;
4915;SDS011;70796;52.406;13.230;2024-03-07T02:22:22;115.17;;;39.80;;
4915;SDS011;70796;52.406;13.230;2024-03-07T02:24:48;113.83;;;39.20;;
4915;SDS011;70796;52.406;13.230;2024-03-07T02:27:14;103.03;;;36.60;;
4915;SDS011;70796;52.406;13.230;2024-03-07T02:29:41;109.67;;;39.10;;
4915;SDS011;70796;52.406;13.230;2024-03-07T02:32:08;123.83;;;41.37;;
4915;SDS011;70796;52.406;13.230;2024-03-07T02:34:36;103.57;;;38.27;;
4915;SDS011;70796;52.406;13.230;2024-03-07T02:37:02;111.10;;;36.70;;
4915;SDS011;70796;52.406;13.230;2024-03-07T02:39:28;97.17;;;36.90;;
4915;SDS011;70796;52.406;13.230;2024-03-07T02:41:55;130.20;;;37.30;;
4915;SDS011;70796;52.406;13.230;2024-03-07T02:44:21;111.60;;;39.30;;
4915;SDS011;70796;52.406;13.230;2024-03-07T02:46:47;99.10;;;36.23;;
4915;SDS011;70796;52.406;13.230;2024-03-07T02:49:14;104.07;;;36.40;;
4915;SDS011;70796;52.406;13.230;2024-03-07T02:51:43;111.43;;;36.70;;
4915;SDS011;70796;52.406;13.230;2024-03-07T02:54:09;99.33;;;38.20;;
4915;SDS011;70796;52.406;13.230;2024-03-07T02:56:36;124.53;;;38.40;;
4915;SDS011;70796;52.406;13.230;2024-03-07T02:59:02;99.27;;;36.67;;
4915;SDS011;70796;52.406;13.230;2024-03-07T03:01:30;98.90;;;38.63;;
4915;SDS011;70796;52.406;13.230;2024-03-07T03:03:56;99.17;;;36.87;;
4915;SDS011;70796;52.406;13.230;2024-03-07T03:06:23;115.43;;;37.70;;
4915;SDS011;70796;52.406;13.230;2024-03-07T03:08:49;112.47;;;40.43;;
4915;SDS011;70796;52.406;13.230;2024-03-07T03:11:16;113.30;;;39.87;;
4915;SDS011;70796;52.406;13.230;2024-03-07T03:13:42;138.10;;;41.80;;
4915;SDS011;70796;52.406;13.230;2024-03-07T03:16:09;91.03;;;37.37;;
4915;SDS011;70796;52.406;13.230;2024-03-07T03:18:35;112.00;;;39.03;;
4915;SDS011;70796;52.406;13.230;2024-03-07T03:21:02;95.27;;;37.30;;
4915;SDS011;70796;52.406;13.230;2024-03-07T03:23:29;108.87;;;37.73;;
4915;SDS011;70796;52.406;13.230;2024-03-07T03:25:55;105.20;;;39.70;;
4915;SDS011;70796;52.406;13.230;2024-03-07T03:28:22;111.97;;;36.80;;
4915;SDS011;70796;52.406;13.230;2024-03-07T03:30:49;119.20;;;40.20;;
4915;SDS011;70796;52.406;13.230;2024-03-07T03:33:16;123.90;;;40.00;;
4915;SDS011;70796;52.406;13.230;2024-03-07T03:35:43;107.10;;;39.20;;
4915;SDS011;70796;52.406;13.230;2024-03-07T03:38:10;86.60;;;36.03;;
4915;SDS011;70796;52.406;13.230;2024-03-07T03:40:37;105.20;;;40.07;;
4915;SDS011;70796;52.406;13.230;2024-03-07T03:43:03;110.03;;;39.40;;
4915;SDS011;70796;52.406;13.230;2024-03-07T03:45:29;110.73;;;37.67;;
4915;SDS011;70796;52.406;13.230;2024-03-07T03:47:58;110.47;;;40.43;;
4915;SDS011;70796;52.406;13.230;2024-03-07T03:50:25;99.20;;;37.57;;
4915;SDS011;70796;52.406;13.230;2024-03-07T03:52:52;104.60;;;37.07;;
4915;SDS011;70796;52.406;13.230;2024-03-07T03:55:18;102.37;;;37.30;;
4915;SDS011;70796;52.406;13.230;2024-03-07T03:57:45;100.03;;;38.07;;
4915;SDS011;70796;52.406;13.230;2024-03-07T04:00:15;109.03;;;37.87;;
4915;SDS011;70796;52.406;13.230;2024-03-07T04:02:46;105.27;;;38.57;;
4915;SDS011;70796;52.406;13.230;2024-03-07T04:05:16;105.17;;;40.63;;
4915;SDS011;70796;52.406;13.230;2024-03-07T04:07:45;89.23;;;39.30;;
4915;SDS011;70796;52.406;13.230;2024-03-07T04:10:11;89.33;;;36.13;;
4915;SDS011;70796;52.406;13.230;2024-03-07T04:12:39;93.20;;;40.73;;
4915;SDS011;70796;52.406;13.230;2024-03-07T04:15:10;93.47;;;37.93;;
4915;SDS011;70796;52.406;13.230;2024-03-07T04:17:37;98.70;;;38.20;;
4915;SDS011;70796;52.406;13.230;2024-03-07T04:20:04;97.47;;;37.90;;
4915;SDS011;70796;52.406;13.230;2024-03-07T04:22:34;93.50;;;39.30;;
4915;SDS011;70796;52.406;13.230;2024-03-07T04:25:01;88.13;;;35.53;;
4915;SDS011;70796;52.406;13.230;2024-03-07T04:27:28;81.03;;;34.20;;
4915;SDS011;70796;52.406;13.230;2024-03-07T04:29:55;84.53;;;34.20;;
4915;SDS011;70796;52.406;13.230;2024-03-07T04:32:21;95.77;;;39.50;;
4915;SDS011;70796;52.406;13.230;2024-03-07T04:34:48;83.27;;;35.40;;
4915;SDS011;70796;52.406;13.230;2024-03-07T04:37:14;95.87;;;37.23;;
4915;SDS011;70796;52.406;13.230;2024-03-07T04:39:41;90.47;;;38.20;;
4915;SDS011;70796;52.406;13.230;2024-03-07T04:42:07;84.67;;;36.60;;
4915;SDS011;70796;52.406;13.230;2024-03-07T04:44:35;92.17;;;35.70;;
4915;SDS011;70796;52.406;13.230;2024-03-07T04:47:02;99.00;;;37.70;;
4915;SDS011;70796;52.406;13.230;2024-03-07T04:49:30;90.13;;;38.20;;
4915;SDS011;70796;52.406;13.230;2024-03-07T04:51:57;85.00;;;37.70;;
4915;SDS011;70796;52.406;13.230;2024-03-07T04:54:24;87.50;;;37.53;;
4915;SDS011;70796;52.406;13.230;2024-03-07T04:56:51;94.43;;;37.53;;
4915;SDS011;70796;52.406;13.230;2024-03-07T04:59:18;88.03;;;34.67;;
4915;SDS011;70796;52.406;13.230;2024-03-07T05:01:45;84.33;;;36.53;;
4915;SDS011;70796;52.406;13.230;2024-03-07T05:04:12;86.03;;;36.60;;
4915;SDS011;70796;52.406;13.230;2024-03-07T05:06:39;81.90;;;36.70;;
4915;SDS011;70796;52.406;13.230;2024-03-07T05:09:06;84.33;;;36.70;;
4915;SDS011;70796;52.406;13.230;2024-03-07T05:11:35;86.60;;;36.33;;
4915;SDS011;70796;52.406;13.230;2024-03-07T05:14:02;87.37;;;37.70;;
4915;SDS011;70796;52.406;13.230;2024-03-07T05:16:29;82.40;;;38.10;;
4915;SDS011;70796;52.406;13.230;2024-03-07T05:18:56;90.00;;;38.17;;
4915;SDS011;70796;52.406;13.230;2024-03-07T05:21:26;88.53;;;37.97;;
4915;SDS011;70796;52.406;13.230;2024-03-07T05:24:01;85.67;;;38.33;;
4915;SDS011;70796;52.406;13.230;2024-03-07T05:26:29;86.97;;;38.90;;
4915;SDS011;70796;52.406;13.230;2024-03-07T05:29:03;80.10;;;35.77;;
4915;SDS011;70796;52.406;13.230;2024-03-07T05:31:39;83.73;;;36.60;;
4915;SDS011;70796;52.406;13.230;2024-03-07T05:34:13;81.93;;;37.30;;
4915;SDS011;70796;52.406;13.230;2024-03-07T05:36:41;80.67;;;38.10;;
4915;SDS011;70796;52.406;13.230;2024-03-07T05:39:15;80.40;;;37.27;;
4915;SDS011;70796;52.406;13.230;2024-03-07T05:41:44;82.00;;;36.13;;
4915;SDS011;70796;52.406;13.230;2024-03-07T05:44:12;75.93;;;35.90;;
4915;SDS011;70796;52.406;13.230;2024-03-07T05:46:40;85.60;;;35.83;;
4915;SDS011;70796;52.406;13.230;2024-03-07T05:49:14;78.03;;;35.50;;
4915;SDS011;70796;52.406;13.230;2024-03-07T05:51:41;79.10;;;36.00;;
4915;SDS011;70796;52.406;13.230;2024-03-07T05:54:13;77.43;;;35.47;;
4915;SDS011;70796;52.406;13.230;2024-03-07T05:56:40;76.20;;;34.03;;
4915;SDS011;70796;52.406;13.230;2024-03-07T05:59:07;85.73;;;36.07;;
4915;SDS011;70796;52.406;13.230;2024-03-07T06:01:38;79.17;;;36.10;;
4915;SDS011;70796;52.406;13.230;2024-03-07T06:04:05;86.77;;;37.33;;
4915;SDS011;70796;52.406;13.230;2024-03-07T06:06:33;79.40;;;37.10;;
4915;SDS011;70796;52.406;13.230;2024-03-07T06:09:03;72.73;;;37.87;;
4915;SDS011;70796;52.406;13.230;2024-03-07T06:11:34;76.00;;;36.00;;
4915;SDS011;70796;52.406;13.230;2024-03-07T06:14:05;83.40;;;34.70;;
4915;SDS011;70796;52.406;13.230;2024-03-07T06:16:33;78.60;;;35.50;;
4915;SDS011;70796;52.406;13.230;2024-03-07T06:19:01;70.17;;;34.60;;
4915;SDS011;70796;52.406;13.230;2024-03-07T06:21:28;69.03;;;34.47;;
4915;SDS011;70796;52.406;13.230;2024-03-07T06:23:58;75.57;;;34.90;;
4915;SDS011;70796;52.406;13.230;2024-03-07T06:26:32;77.83;;;36.27;;
4915;SDS011;70796;52.406;13.230;2024-03-07T06:29:14;72.73;;;35.30;;
4915;SDS011;70796;52.406;13.230;2024-03-07T06:31:45;81.53;;;37.03;;
4915;SDS011;70796;52.406;13.230;2024-03-07T06:34:16;61.40;;;32.10;;
4915;SDS011;70796;52.406;13.230;2024-03-07T06:36:43;84.10;;;34.43;;
4915;SDS011;70796;52.406;13.230;2024-03-07T06:39:10;66.53;;;31.97;;
4915;SDS011;70796;52.406;13.230;2024-03-07T06:41:37;61.13;;;30.90;;
4915;SDS011;70796;52.406;13.230;2024-03-07T06:44:04;70.80;;;34.30;;
4915;SDS011;70796;52.406;13.230;2024-03-07T06:46:30;63.90;;;31.27;;
4915;SDS011;70796;52.406;13.230;2024-03-07T06:48:58;62.13;;;30.13;;
4915;SDS011;70796;52.406;13.230;2024-03-07T06:51:24;62.10;;;30.97;;
4915;SDS011;70796;52.406;13.230;2024-03-07T06:53:51;58.33;;;29.90;;
4915;SDS011;70796;52.406;13.230;2024-03-07T06:56:17;55.03;;;28.40;;
4915;SDS011;70796;52.406;13.230;2024-03-07T06:58:44;52.87;;;27.67;;
4915;SDS011;70796;52.406;13.230;2024-03-07T07:01:12;50.73;;;26.77;;
4915;SDS011;70796;52.406;13.230;2024-03-07T07:03:42;55.33;;;28.50;;
4915;SDS011;70796;52.406;13.230;2024-03-07T07:06:13;46.73;;;25.30;;
4915;SDS011;70796;52.406;13.230;2024-03-07T07:08:40;49.33;;;25.20;;
4915;SDS011;70796;52.406;13.230;2024-03-07T07:11:20;47.93;;;24.53;;
4915;SDS011;70796;52.406;13.230;2024-03-07T07:13:46;42.30;;;22.37;;
4915;SDS011;70796;52.406;13.230;2024-03-07T07:16:13;46.03;;;24.30;;
4915;SDS011;70796;52.406;13.230;2024-03-07T07:18:39;37.37;;;22.23;;
4915;SDS011;70796;52.406;13.230;2024-03-07T07:21:05;45.10;;;22.90;;
4915;SDS011;70796;52.406;13.230;2024-03-07T07:23:36;43.10;;;22.30;;
4915;SDS011;70796;52.406;13.230;2024-03-07T07:26:03;38.40;;;21.20;;
4915;SDS011;70796;52.406;13.230;2024-03-07T07:28:31;37.37;;;21.43;;
4915;SDS011;70796;52.406;13.230;2024-03-07T07:30:59;32.40;;;19.60;;
4915;SDS011;70796;52.406;13.230;2024-03-07T07:33:25;30.87;;;18.87;;
4915;SDS011;70796;52.406;13.230;2024-03-07T07:35:53;37.43;;;19.20;;
4915;SDS011;70796;52.406;13.230;2024-03-07T07:38:19;35.00;;;19.70;;
4915;SDS011;70796;52.406;13.230;2024-03-07T07:40:45;40.53;;;18.53;;
4915;SDS011;70796;52.406;13.230;2024-03-07T07:43:12;45.13;;;18.90;;
4915;SDS011;70796;52.406;13.230;2024-03-07T07:45:50;34.23;;;17.73;;
4915;SDS011;70796;52.406;13.230;2024-03-07T07:48:16;30.10;;;17.50;;
4915;SDS011;70796;52.406;13.230;2024-03-07T07:50:45;37.70;;;19.20;;
4915;SDS011;70796;52.406;13.230;2024-03-07T07:53:11;27.23;;;15.80;;
4915;SDS011;70796;52.406;13.230;2024-03-07T07:55:38;35.70;;;17.10;;
4915;SDS011;70796;52.406;13.230;2024-03-07T07:58:04;32.03;;;16.80;;
4915;SDS011;70796;52.406;13.230;2024-03-07T08:00:32;25.73;;;15.43;;
4915;SDS011;70796;52.406;13.230;2024-03-07T08:02:59;30.13;;;16.23;;
4915;SDS011;70796;52.406;13.230;2024-03-07T08:05:27;27.77;;;16.20;;
4915;SDS011;70796;52.406;13.230;2024-03-07T08:07:55;32.13;;;16.10;;
4915;SDS011;70796;52.406;13.230;2024-03-07T08:10:24;31.27;;;15.50;;
4915;SDS011;70796;52.406;13.230;2024-03-07T08:12:51;29.37;;;14.67;;
4915;SDS011;70796;52.406;13.230;2024-03-07T08:15:18;26.73;;;15.33;;
4915;SDS011;70796;52.406;13.230;2024-03-07T08:17:46;24.33;;;14.90;;
4915;SDS011;70796;52.406;13.230;2024-03-07T08:20:13;25.00;;;14.83;;
4915;SDS011;70796;52.406;13.230;2024-03-07T08:22:41;28.70;;;14.53;;
4915;SDS011;70796;52.406;13.230;2024-03-07T08:25:09;25.50;;;14.70;;
4915;SDS011;70796;52.406;13.230;2024-03-07T08:27:36;21.53;;;13.90;;
4915;SDS011;70796;52.406;13.230;2024-03-07T08:30:07;24.40;;;13.67;;
4915;SDS011;70796;52.406;13.230;2024-03-07T08:32:39;21.53;;;14.20;;
4915;SDS011;70796;52.406;13.230;2024-03-07T08:35:06;23.37;;;14.03;;
4915;SDS011;70796;52.406;13.230;2024-03-07T08:37:38;28.60;;;15.00;;
4915;SDS011;70796;52.406;13.230;2024-03-07T08:40:05;24.53;;;14.57;;
4915;SDS011;70796;52.406;13.230;2024-03-07T08:42:33;28.43;;;14.20;;
4915;SDS011;70796;52.406;13.230;2024-03-07T08:45:00;25.80;;;13.43;;
4915;SDS011;70796;52.406;13.230;2024-03-07T08:47:34;23.83;;;14.20;;
4915;SDS011;70796;52.406;13.230;2024-03-07T08:50:01;26.67;;;14.30;;
4915;SDS011;70796;52.406;13.230;2024-03-07T08:52:32;23.83;;;13.50;;
4915;SDS011;70796;52.406;13.230;2024-03-07T08:54:58;22.90;;;13.43;;
4915;SDS011;70796;52.406;13.230;2024-03-07T08:57:25;27.67;;;13.87;;
4915;SDS011;70796;52.406;13.230;2024-03-07T08:59:51;21.63;;;14.00;;
4915;SDS011;70796;52.406;13.230;2024-03-07T09:03:07;24.10;;;12.43;;
4915;SDS011;70796;52.406;13.230;2024-03-07T09:05:38;17.00;;;11.30;;
4915;SDS011;70796;52.406;13.230;2024-03-07T09:08:05;17.70;;;10.43;;
4915;SDS011;70796;52.406;13.230;2024-03-07T09:10:33;18.13;;;12.13;;
4915;SDS011;70796;52.406;13.230;2024-03-07T09:12:59;18.83;;;11.43;;
4915;SDS011;70796;52.406;13.230;2024-03-07T09:15:25;20.97;;;11.90;;
4915;SDS011;70796;52.406;13.230;2024-03-07T09:17:53;23.23;;;11.27;;
4915;SDS011;70796;52.406;13.230;2024-03-07T09:20:20;20.17;;;11.80;;
4915;SDS011;70796;52.406;13.230;2024-03-07T09:22:47;19.97;;;11.47;;
4915;SDS011;70796;52.406;13.230;2024-03-07T09:25:15;20.77;;;10.97;;
4915;SDS011;70796;52.406;13.230;2024-03-07T09:27:42;21.90;;;10.63;;
4915;SDS011;70796;52.406;13.230;2024-03-07T09:30:09;19.87;;;12.33;;
4915;SDS011;70796;52.406;13.230;2024-03-07T09:32:39;18.60;;;11.23;;
4915;SDS011;70796;52.406;13.230;2024-03-07T09:35:06;24.33;;;10.50;;
4915;SDS011;70796;52.406;13.230;2024-03-07T09:37:40;25.03;;;12.03;;
4915;SDS011;70796;52.406;13.230;2024-03-07T09:40:07;20.00;;;12.30;;
4915;SDS011;70796;52.406;13.230;2024-03-07T09:42:41;19.60;;;11.30;;
4915;SDS011;70796;52.406;13.230;2024-03-07T09:45:11;20.00;;;10.80;;
4915;SDS011;70796;52.406;13.230;2024-03-07T09:47:41;18.73;;;10.27;;
4915;SDS011;70796;52.406;13.230;2024-03-07T09:50:09;21.20;;;10.50;;
4915;SDS011;70796;52.406;13.230;2024-03-07T09:52:35;19.13;;;10.50;;
4915;SDS011;70796;52.406;13.230;2024-03-07T09:55:03;17.00;;;10.70;;
4915;SDS011;70796;52.406;13.230;2024-03-07T09:57:30;20.90;;;11.50;;
4915;SDS011;70796;52.406;13.230;2024-03-07T09:59:58;20.63;;;11.20;;
4915;SDS011;70796;52.406;13.230;2024-03-07T10:02:37;18.70;;;10.13;;
4915;SDS011;70796;52.406;13.230;2024-03-07T10:05:07;15.50;;;9.97;;
4915;SDS011;70796;52.406;13.230;2024-03-07T10:07:39;19.33;;;11.00;;
4915;SDS011;70796;52.406;13.230;2024-03-07T10:10:06;14.20;;;9.87;;
4915;SDS011;70796;52.406;13.230;2024-03-07T10:12:38;17.60;;;9.93;;
4915;SDS011;70796;52.406;13.230;2024-03-07T10:15:04;19.57;;;10.40;;
4915;SDS011;70796;52.406;13.230;2024-03-07T10:17:31;16.00;;;9.70;;
4915;SDS011;70796;52.406;13.230;2024-03-07T10:19:58;23.40;;;10.53;;
4915;SDS011;70796;52.406;13.230;2024-03-07T10:22:27;15.50;;;9.40;;
4915;SDS011;70796;52.406;13.230;2024-03-07T10:24:54;17.03;;;9.80;;
4915;SDS011;70796;52.406;13.230;2024-03-07T10:27:27;16.97;;;10.13;;
4915;SDS011;70796;52.406;13.230;2024-03-07T10:29:55;14.20;;;9.60;;
4915;SDS011;70796;52.406;13.230;2024-03-07T10:32:22;19.40;;;10.60;;
4915;SDS011;70796;52.406;13.230;2024-03-07T10:34:52;21.23;;;11.60;;
4915;SDS011;70796;52.406;13.230;2024-03-07T10:37:19;15.03;;;10.47;;
4915;SDS011;70796;52.406;13.230;2024-03-07T10:39:51;17.70;;;9.83;;
4915;SDS011;70796;52.406;13.230;2024-03-07T10:42:18;17.60;;;10.90;;
4915;SDS011;70796;52.406;13.230;2024-03-07T10:44:46;16.73;;;10.23;;
4915;SDS011;70796;52.406;13.230;2024-03-07T10:47:19;19.37;;;10.07;;
4915;SDS011;70796;52.406;13.230;2024-03-07T10:49:59;16.80;;;9.80;;
4915;SDS011;70796;52.406;13.230;2024-03-07T10:55:19;14.70;;;10.10;;
4915;SDS011;70796;52.406;13.230;2024-03-07T10:57:56;14.33;;;10.00;;
4915;SDS011;70796;52.406;13.230;2024-03-07T11:00:43;15.37;;;9.20;;
4915;SDS011;70796;52.406;13.230;2024-03-07T11:03:13;14.30;;;9.27;;
4915;SDS011;70796;52.406;13.230;2024-03-07T11:05:41;14.90;;;10.10;;
4915;SDS011;70796;52.406;13.230;2024-03-07T11:08:09;15.70;;;10.10;;
4915;SDS011;70796;52.406;13.230;2024-03-07T11:10:40;15.10;;;9.10;;
4915;SDS011;70796;52.406;13.230;2024-03-07T11:13:07;20.97;;;9.60;;
4915;SDS011;70796;52.406;13.230;2024-03-07T11:15:43;17.10;;;9.77;;
4915;SDS011;70796;52.406;13.230;2024-03-07T11:18:12;17.40;;;10.40;;
4915;SDS011;70796;52.406;13.230;2024-03-07T11:20:39;18.27;;;10.47;;
4915;SDS011;70796;52.406;13.230;2024-03-07T11:26:02;16.20;;;10.77;;
4915;SDS011;70796;52.406;13.230;2024-03-07T11:28:42;19.27;;;10.43;;
4915;SDS011;70796;52.406;13.230;2024-03-07T11:31:25;20.83;;;11.17;;
4915;SDS011;70796;52.406;13.230;2024-03-07T11:34:11;16.90;;;10.90;;
4915;SDS011;70796;52.406;13.230;2024-03-07T11:36:42;16.33;;;9.63;;
4915;SDS011;70796;52.406;13.230;2024-03-07T11:42:19;18.60;;;11.17;;
4915;SDS011;70796;52.406;13.230;2024-03-07T11:44:47;23.53;;;11.23;;
4915;SDS011;70796;52.406;13.230;2024-03-07T11:47:15;20.33;;;10.97;;
4915;SDS011;70796;52.406;13.230;2024-03-07T11:49:44;17.00;;;10.30;;
4915;SDS011;70796;52.406;13.230;2024-03-07T11:52:15;17.63;;;10.90;;
4915;SDS011;70796;52.406;13.230;2024-03-07T11:54:43;20.13;;;10.87;;
4915;SDS011;70796;52.406;13.230;2024-03-07T11:57:12;26.23;;;11.63;;
4915;SDS011;70796;52.406;13.230;2024-03-07T11:59:41;20.67;;;11.87;;
4915;SDS011;70796;52.406;13.230;2024-03-07T12:02:12;20.13;;;11.03;;
4915;SDS011;70796;52.406;13.230;2024-03-07T12:04:41;23.17;;;11.13;;
4915;SDS011;70796;52.406;13.230;2024-03-07T12:07:08;19.50;;;10.40;;
4915;SDS011;70796;52.406;13.230;2024-03-07T12:09:37;15.60;;;9.50;;
4915;SDS011;70796;52.406;13.230;2024-03-07T12:12:05;19.80;;;10.77;;
4915;SDS011;70796;52.406;13.230;2024-03-07T12:14:32;20.13;;;9.03;;
4915;SDS011;70796;52.406;13.230;2024-03-07T12:17:01;15.53;;;9.90;;
4915;SDS011;70796;52.406;13.230;2024-03-07T12:19:31;14.50;;;10.40;;
4915;SDS011;70796;52.406;13.230;2024-03-07T12:22:01;19.80;;;10.87;;
4915;SDS011;70796;52.406;13.230;2024-03-07T12:24:29;18.23;;;10.23;;
4915;SDS011;70796;52.406;13.230;2024-03-07T12:27:05;14.30;;;10.00;;
4915;SDS011;70796;52.406;13.230;2024-03-07T12:29:38;18.80;;;11.70;;
4915;SDS011;70796;52.406;13.230;2024-03-07T12:32:09;19.70;;;12.10;;
4915;SDS011;70796;52.406;13.230;2024-03-07T12:34:36;19.20;;;13.20;;
4915;SDS011;70796;52.406;13.230;2024-03-07T12:37:07;24.20;;;12.00;;
4915;SDS011;70796;52.406;13.230;2024-03-07T12:39:35;19.63;;;12.43;;
4915;SDS011;70796;52.406;13.230;2024-03-07T12:42:04;17.97;;;11.10;;
4915;SDS011;70796;52.406;13.230;2024-03-07T12:44:44;20.17;;;12.20;;
4915;SDS011;70796;52.406;13.230;2024-03-07T12:47:14;18.30;;;12.87;;
4915;SDS011;70796;52.406;13.230;2024-03-07T12:49:40;19.83;;;12.43;;
4915;SDS011;70796;52.406;13.230;2024-03-07T12:52:10;18.30;;;11.73;;
4915;SDS011;70796;52.406;13.230;2024-03-07T12:54:41;18.40;;;11.37;;
4915;SDS011;70796;52.406;13.230;2024-03-07T12:57:11;20.03;;;11.80;;
4915;SDS011;70796;52.406;13.230;2024-03-07T12:59:38;21.30;;;11.63;;
4915;SDS011;70796;52.406;13.230;2024-03-07T13:02:08;18.27;;;11.27;;
4915;SDS011;70796;52.406;13.230;2024-03-07T13:04:34;19.73;;;12.33;;
4915;SDS011;70796;52.406;13.230;2024-03-07T13:07:05;19.10;;;12.13;;
4915;SDS011;70796;52.406;13.230;2024-03-07T13:09:35;17.80;;;11.90;;
4915;SDS011;70796;52.406;13.230;2024-03-07T13:12:01;17.67;;;10.87;;
4915;SDS011;70796;52.406;13.230;2024-03-07T13:14:30;17.27;;;10.57;;
4915;SDS011;70796;52.406;13.230;2024-03-07T13:17:02;18.63;;;12.77;;
4915;SDS011;70796;52.406;13.230;2024-03-07T13:19:28;21.07;;;12.17;;
4915;SDS011;70796;52.406;13.230;2024-03-07T13:21:55;18.87;;;12.10;;
4915;SDS011;70796;52.406;13.230;2024-03-07T13:24:22;18.27;;;12.37;;
4915;SDS011;70796;52.406;13.230;2024-03-07T13:26:49;18.60;;;12.70;;
4915;SDS011;70796;52.406;13.230;2024-03-07T13:29:16;16.00;;;9.53;;
4915;SDS011;70796;52.406;13.230;2024-03-07T13:31:43;18.83;;;10.77;;
4915;SDS011;70796;52.406;13.230;2024-03-07T13:34:10;20.50;;;12.10;;
4915;SDS011;70796;52.406;13.230;2024-03-07T13:36:40;24.13;;;12.57;;
4915;SDS011;70796;52.406;13.230;2024-03-07T13:39:11;21.83;;;13.13;;
4915;SDS011;70796;52.406;13.230;2024-03-07T13:41:38;20.90;;;13.27;;
4915;SDS011;70796;52.406;13.230;2024-03-07T13:44:05;17.87;;;11.63;;
4915;SDS011;70796;52.406;13.230;2024-03-07T13:46:31;18.13;;;11.73;;
4915;SDS011;70796;52.406;13.230;2024-03-07T13:48:59;19.40;;;11.50;;
4915;SDS011;70796;52.406;13.230;2024-03-07T13:51:33;17.70;;;11.70;;
4915;SDS011;70796;52.406;13.230;2024-03-07T13:54:02;16.70;;;11.10;;
4915;SDS011;70796;52.406;13.230;2024-03-07T14:14:06;18.47;;;10.80;;
4915;SDS011;70796;52.406;13.230;2024-03-07T14:19:56;17.00;;;11.10;;
4915;SDS011;70796;52.406;13.230;2024-03-07T14:23:02;17.70;;;10.53;;
4915;SDS011;70796;52.406;13.230;2024-03-07T14:31:08;19.73;;;11.30;;
4915;SDS011;70796;52.406;13.230;2024-03-07T14:36:33;20.37;;;11.87;;
4915;SDS011;70796;52.406;13.230;2024-03-07T14:39:03;17.73;;;11.50;;
4915;SDS011;70796;52.406;13.230;2024-03-07T14:41:40;17.93;;;11.40;;
4915;SDS011;70796;52.406;13.230;2024-03-07T14:44:10;21.80;;;10.73;;
4915;SDS011;70796;52.406;13.230;2024-03-07T14:46:36;14.90;;;9.47;;
4915;SDS011;70796;52.406;13.230;2024-03-07T14:49:03;20.17;;;11.90;;
4915;SDS011;70796;52.406;13.230;2024-03-07T14:51:30;18.53;;;11.53;;
4915;SDS011;70796;52.406;13.230;2024-03-07T14:54:09;21.00;;;11.30;;
4915;SDS011;70796;52.406;13.230;2024-03-07T14:56:36;19.63;;;11.80;;
4915;SDS011;70796;52.406;13.230;2024-03-07T14:59:02;18.40;;;10.50;;
4915;SDS011;70796;52.406;13.230;2024-03-07T15:01:30;20.07;;;12.27;;
4915;SDS011;70796;52.406;13.230;2024-03-07T15:04:02;18.00;;;11.63;;